createdAt,value
2022-07-26T00:01:32.260Z,20.90
2022-07-26T00:04:01.589Z,20.60
2022-07-26T00:06:30.947Z,20.40
2022-07-26T00:08:59.559Z,20.20
2022-07-26T00:11:33.579Z,20.10
2022-07-26T00:14:02.258Z,20.00
2022-07-26T00:16:31.162Z,20.00
2022-07-26T00:18:59.946Z,19.90
2022-07-26T00:21:28.067Z,19.70
2022-07-26T00:23:56.205Z,19.70
2022-07-26T00:26:24.389Z,19.70
2022-07-26T00:28:53.838Z,19.90
2022-07-26T00:31:21.988Z,20.00
2022-07-26T00:33:50.087Z,20.10
2022-07-26T00:36:18.355Z,20.20
2022-07-26T00:38:46.439Z,20.30
2022-07-26T00:41:14.554Z,20.40
2022-07-26T00:43:57.452Z,20.50
2022-07-26T00:46:25.636Z,20.50
2022-07-26T00:48:53.878Z,20.60
2022-07-26T00:51:22.538Z,20.60
2022-07-26T00:53:50.851Z,20.60
2022-07-26T00:56:19.479Z,20.60
2022-07-26T00:58:47.592Z,20.60
2022-07-26T01:01:17.146Z,20.60
2022-07-26T01:03:46.340Z,20.60
2022-07-26T01:06:14.424Z,20.60
2022-07-26T01:08:42.551Z,20.60
2022-07-26T01:11:10.789Z,20.70
2022-07-26T01:13:38.869Z,20.60
2022-07-26T01:16:07.578Z,20.60
2022-07-26T01:18:37.034Z,20.60
2022-07-26T01:21:09.000Z,20.60
2022-07-26T01:23:44.477Z,20.60
2022-07-26T01:26:12.831Z,20.70
2022-07-26T01:28:42.524Z,20.70
2022-07-26T01:31:10.694Z,20.80
2022-07-26T01:33:38.871Z,20.80
2022-07-26T01:36:08.693Z,20.90
2022-07-26T01:38:36.894Z,20.80
2022-07-26T01:41:06.508Z,20.70
2022-07-26T01:43:34.673Z,20.60
2022-07-26T01:46:03.172Z,20.60
2022-07-26T01:48:31.774Z,20.50
2022-07-26T01:51:00.091Z,20.50
2022-07-26T01:53:28.342Z,20.50
2022-07-26T01:55:56.381Z,20.60
2022-07-26T01:58:25.856Z,20.60
2022-07-26T02:00:53.922Z,20.60
2022-07-26T02:03:22.053Z,20.50
2022-07-26T02:05:50.157Z,20.50
2022-07-26T02:08:18.645Z,20.50
2022-07-26T02:11:04.407Z,20.50
2022-07-26T02:13:35.728Z,20.30
2022-07-26T02:16:04.617Z,20.00
2022-07-26T02:18:33.448Z,19.70
2022-07-26T02:21:02.691Z,19.40
2022-07-26T02:23:31.344Z,19.10
2022-07-26T02:25:59.471Z,18.80
2022-07-26T02:28:28.696Z,18.80
2022-07-26T02:30:58.219Z,18.80
2022-07-26T02:33:26.339Z,18.70
2022-07-26T02:35:54.472Z,18.70
2022-07-26T02:38:22.627Z,18.70
2022-07-26T02:40:53.566Z,18.60
2022-07-26T02:43:22.239Z,18.50
2022-07-26T02:46:00.912Z,18.50
2022-07-26T02:48:31.997Z,18.50
2022-07-26T02:51:00.263Z,18.60
2022-07-26T02:53:28.622Z,18.70
2022-07-26T02:55:56.732Z,18.70
2022-07-26T02:58:26.897Z,18.70
2022-07-26T03:00:55.260Z,18.70
2022-07-26T03:03:23.459Z,18.60
2022-07-26T03:05:52.926Z,18.70
2022-07-26T03:08:21.331Z,18.80
2022-07-26T03:10:49.427Z,18.90
2022-07-26T03:13:17.575Z,18.90
2022-07-26T03:15:45.808Z,18.80
2022-07-26T03:18:13.992Z,18.80
2022-07-26T03:20:42.098Z,18.70
2022-07-26T03:23:11.550Z,18.60
2022-07-26T03:25:39.912Z,18.50
2022-07-26T03:28:08.043Z,18.30
2022-07-26T03:30:36.125Z,18.20
2022-07-26T03:33:04.267Z,18.00
2022-07-26T03:35:36.464Z,17.90
2022-07-26T03:38:05.248Z,17.80
2022-07-26T03:40:35.127Z,17.80
2022-07-26T03:43:03.360Z,17.70
2022-07-26T03:45:31.496Z,17.60
2022-07-26T03:47:59.603Z,17.50
2022-07-26T03:50:27.664Z,17.40
2022-07-26T03:52:55.784Z,17.40
2022-07-26T03:55:41.315Z,17.40
2022-07-26T03:58:10.796Z,17.50
2022-07-26T04:00:38.853Z,17.50
2022-07-26T04:03:06.959Z,17.50
2022-07-26T04:05:35.039Z,17.50
2022-07-26T04:08:04.489Z,17.50
2022-07-26T04:10:33.813Z,17.50
2022-07-26T04:13:01.898Z,17.50
2022-07-26T04:15:31.496Z,17.60
2022-07-26T04:17:59.580Z,17.50
2022-07-26T04:20:27.656Z,17.50
2022-07-26T04:22:55.810Z,17.20
2022-07-26T04:25:24.042Z,17.10
2022-07-26T04:27:52.117Z,17.30
2022-07-26T04:30:20.166Z,17.40
2022-07-26T04:32:49.696Z,17.20
2022-07-26T04:35:17.913Z,17.00
2022-07-26T04:37:47.545Z,16.80
2022-07-26T04:40:21.054Z,16.60
2022-07-26T04:42:51.141Z,16.50
2022-07-26T04:45:19.905Z,16.60
2022-07-26T04:47:51.379Z,16.70
2022-07-26T04:50:20.564Z,16.80
2022-07-26T04:52:49.076Z,17.10
2022-07-26T04:55:17.757Z,17.20
2022-07-26T04:57:47.423Z,17.20
2022-07-26T05:00:22.880Z,17.10
2022-07-26T05:02:55.452Z,17.10
2022-07-26T05:05:24.750Z,17.00
2022-07-26T05:07:54.585Z,16.90
2022-07-26T05:10:28.772Z,16.70
2022-07-26T05:12:56.827Z,16.70
2022-07-26T05:15:25.072Z,16.60
2022-07-26T05:18:07.025Z,16.50
2022-07-26T05:20:36.704Z,16.50
2022-07-26T05:23:05.930Z,16.60
2022-07-26T05:25:34.022Z,16.60
2022-07-26T05:28:02.126Z,16.70
2022-07-26T05:30:30.523Z,16.80
2022-07-26T05:32:58.655Z,17.00
2022-07-26T05:35:28.264Z,17.10
2022-07-26T05:37:56.534Z,17.10
2022-07-26T05:40:24.670Z,17.10
2022-07-26T05:42:52.768Z,17.00
2022-07-26T05:45:20.980Z,17.10
2022-07-26T05:47:51.369Z,17.10
2022-07-26T05:50:20.488Z,17.20
2022-07-26T05:52:50.195Z,17.30
2022-07-26T05:55:18.271Z,17.30
2022-07-26T05:57:49.862Z,17.30
2022-07-26T06:00:18.619Z,17.30
2022-07-26T06:02:46.979Z,17.30
2022-07-26T06:05:16.070Z,17.30
2022-07-26T06:07:44.266Z,17.30
2022-07-26T06:10:14.132Z,17.50
2022-07-26T06:12:42.279Z,17.40
2022-07-26T06:15:15.644Z,17.40
2022-07-26T06:17:44.427Z,17.40
2022-07-26T06:20:13.165Z,17.50
2022-07-26T06:22:41.231Z,17.60
2022-07-26T06:25:09.931Z,17.70
2022-07-26T06:27:39.420Z,17.90
2022-07-26T06:30:09.921Z,18.20
2022-07-26T06:32:38.029Z,18.40
2022-07-26T06:35:06.795Z,18.30
2022-07-26T06:37:37.619Z,18.30
2022-07-26T06:40:07.354Z,18.40
2022-07-26T06:42:35.500Z,18.70
2022-07-26T06:45:06.311Z,18.80
2022-07-26T06:47:35.329Z,18.60
2022-07-26T06:50:03.711Z,18.50
2022-07-26T06:52:32.819Z,18.50
2022-07-26T06:55:01.156Z,18.60
2022-07-26T06:57:29.527Z,18.70
2022-07-26T06:59:57.641Z,18.80
2022-07-26T07:02:27.467Z,19.10
2022-07-26T07:04:55.828Z,19.10
2022-07-26T07:07:23.924Z,19.00
2022-07-26T07:09:54.983Z,19.10
2022-07-26T07:12:23.837Z,19.20
2022-07-26T07:14:51.932Z,19.30
2022-07-26T07:17:21.074Z,19.60
2022-07-26T07:19:50.558Z,19.60
2022-07-26T07:22:18.728Z,19.40
2022-07-26T07:24:46.884Z,19.10
2022-07-26T07:27:16.734Z,19.20
2022-07-26T07:29:44.923Z,19.20
2022-07-26T07:32:18.034Z,19.40
2022-07-26T07:34:47.687Z,19.30
2022-07-26T07:37:17.499Z,19.40
2022-07-26T07:39:50.339Z,19.50
2022-07-26T07:42:19.358Z,19.70
2022-07-26T07:44:47.548Z,19.80
2022-07-26T07:47:15.777Z,19.80
2022-07-26T07:49:44.193Z,19.80
2022-07-26T07:52:12.324Z,19.90
2022-07-26T07:54:42.197Z,20.00
2022-07-26T07:57:10.557Z,20.00
2022-07-26T07:59:39.262Z,20.10
2022-07-26T08:02:08.036Z,20.10
2022-07-26T08:04:36.253Z,20.00
2022-07-26T08:07:04.379Z,19.80
2022-07-26T08:09:33.847Z,19.80
2022-07-26T08:12:03.793Z,19.90
2022-07-26T08:14:33.612Z,20.10
2022-07-26T08:17:02.283Z,20.10
2022-07-26T08:19:42.302Z,20.10
2022-07-26T08:22:11.202Z,20.20
2022-07-26T08:24:39.508Z,20.40
2022-07-26T08:27:08.963Z,20.40
2022-07-26T08:29:37.123Z,20.30
2022-07-26T08:32:06.080Z,20.20
2022-07-26T08:34:34.540Z,20.20
2022-07-26T08:37:18.575Z,20.50
2022-07-26T08:39:47.809Z,20.50
2022-07-26T08:42:22.887Z,20.80
2022-07-26T08:44:52.751Z,21.20
2022-07-26T08:47:35.370Z,21.10
2022-07-26T08:50:07.160Z,20.80
2022-07-26T08:52:35.704Z,20.80
2022-07-26T08:55:03.799Z,21.00
2022-07-26T08:57:33.304Z,21.30
2022-07-26T09:00:19.127Z,21.70
2022-07-26T09:02:47.930Z,21.70
2022-07-26T09:05:19.171Z,21.80
2022-07-26T09:07:47.480Z,21.90
2022-07-26T09:10:16.734Z,22.10
2022-07-26T09:12:46.213Z,22.40
2022-07-26T09:15:21.602Z,22.70
2022-07-26T09:17:51.555Z,22.80
2022-07-26T09:20:24.050Z,22.90
2022-07-26T09:23:01.906Z,22.80
2022-07-26T09:25:31.680Z,22.70
2022-07-26T09:28:01.749Z,22.80
2022-07-26T09:30:31.585Z,23.30
2022-07-26T09:33:02.687Z,23.00
2022-07-26T09:35:50.841Z,23.30
2022-07-26T09:38:20.289Z,23.40
2022-07-26T09:40:50.921Z,23.40
2022-07-26T09:43:24.337Z,23.80
2022-07-26T09:46:06.124Z,23.10
2022-07-26T09:49:07.108Z,22.70
2022-07-26T09:51:39.988Z,22.40
2022-07-26T09:54:09.348Z,22.40
2022-07-26T09:56:46.318Z,22.70
2022-07-26T09:59:17.312Z,23.10
2022-07-26T10:01:45.827Z,23.30
2022-07-26T10:04:14.579Z,23.70
2022-07-26T10:06:43.691Z,23.60
2022-07-26T10:09:12.780Z,23.50
2022-07-26T10:11:46.099Z,23.90
2022-07-26T10:14:38.789Z,24.20
2022-07-26T10:17:46.556Z,23.90
2022-07-26T10:20:43.690Z,23.10
2022-07-26T10:23:36.194Z,23.00
2022-07-26T10:26:06.035Z,23.70
2022-07-26T10:28:36.630Z,24.10
2022-07-26T10:31:33.018Z,23.90
2022-07-26T10:34:02.582Z,23.30
2022-07-26T10:36:38.040Z,23.40
2022-07-26T10:39:12.040Z,23.80
2022-07-26T10:41:46.015Z,24.20
2022-07-26T10:44:25.998Z,23.80
2022-07-26T10:47:01.618Z,23.40
2022-07-26T10:49:35.227Z,23.00
2022-07-26T10:52:08.694Z,23.50
2022-07-26T10:55:15.193Z,23.90
2022-07-26T10:57:44.579Z,24.20
2022-07-26T11:00:16.833Z,23.40
2022-07-26T11:02:50.223Z,23.20
2022-07-26T11:05:19.705Z,23.20
2022-07-26T11:08:10.894Z,23.60
2022-07-26T11:10:40.807Z,23.50
2022-07-26T11:13:14.567Z,23.40
2022-07-26T11:15:44.805Z,23.60
2022-07-26T11:18:27.891Z,24.30
2022-07-26T11:20:58.047Z,25.00
2022-07-26T11:23:34.472Z,24.50
2022-07-26T11:26:04.861Z,23.90
2022-07-26T11:28:52.926Z,23.30
2022-07-26T11:31:24.422Z,23.00
2022-07-26T11:34:22.116Z,22.90
2022-07-26T11:36:51.726Z,22.90
2022-07-26T11:39:24.012Z,22.80
2022-07-26T11:41:53.338Z,22.80
2022-07-26T11:44:23.533Z,23.60
2022-07-26T11:46:52.277Z,23.90
2022-07-26T11:49:41.381Z,23.80
2022-07-26T11:52:12.134Z,24.20
2022-07-26T11:54:46.902Z,24.60
2022-07-26T11:57:15.617Z,25.10
2022-07-26T11:59:46.075Z,25.10
2022-07-26T12:02:15.475Z,24.80
2022-07-26T12:04:45.858Z,24.80
2022-07-26T12:07:16.314Z,25.00
2022-07-26T12:09:49.602Z,25.10
2022-07-26T12:12:22.366Z,25.10
2022-07-26T12:14:58.197Z,25.20
2022-07-26T12:17:26.675Z,25.30
2022-07-26T12:20:15.681Z,25.00
2022-07-26T12:22:55.761Z,24.60
2022-07-26T12:25:27.918Z,24.40
2022-07-26T12:27:56.119Z,24.30
2022-07-26T12:30:25.632Z,24.70
2022-07-26T12:33:02.938Z,25.30
2022-07-26T12:35:35.714Z,26.00
2022-07-26T12:38:04.706Z,26.40
2022-07-26T12:40:42.010Z,26.50
2022-07-26T12:43:10.145Z,26.20
2022-07-26T12:45:39.179Z,26.20
2022-07-26T12:48:11.025Z,26.00
2022-07-26T12:50:40.646Z,26.00
2022-07-26T12:53:12.809Z,26.50
2022-07-26T12:55:41.222Z,27.30
2022-07-26T12:58:10.023Z,26.90
2022-07-26T13:00:38.137Z,25.80
2022-07-26T13:03:06.253Z,25.60
2022-07-26T13:05:34.351Z,25.80
2022-07-26T13:08:03.878Z,25.60
2022-07-26T13:10:33.990Z,25.60
2022-07-26T13:13:02.603Z,25.10
2022-07-26T13:15:36.398Z,24.80
2022-07-26T13:18:06.829Z,24.40
2022-07-26T13:20:34.943Z,23.90
2022-07-26T13:23:04.642Z,23.80
2022-07-26T13:25:39.759Z,23.60
2022-07-26T13:28:08.813Z,23.60
2022-07-26T13:30:39.379Z,23.70
2022-07-26T13:33:08.323Z,23.50
2022-07-26T13:35:38.868Z,23.80
2022-07-26T13:38:08.365Z,23.90
2022-07-26T13:40:36.592Z,24.00
2022-07-26T13:43:05.590Z,24.70
2022-07-26T13:45:33.686Z,25.10
2022-07-26T13:48:01.817Z,25.20
2022-07-26T13:50:29.884Z,25.20
2022-07-26T13:52:58.011Z,24.70
2022-07-26T13:55:27.639Z,25.10
2022-07-26T13:57:57.965Z,25.70
2022-07-26T14:00:27.197Z,26.20
2022-07-26T14:02:55.798Z,25.50
2022-07-26T14:05:24.214Z,25.00
2022-07-26T14:07:52.479Z,25.20
2022-07-26T14:10:21.357Z,25.20
2022-07-26T14:12:51.183Z,24.60
2022-07-26T14:15:22.756Z,24.70
2022-07-26T14:17:51.975Z,24.80
2022-07-26T14:20:21.205Z,25.10
2022-07-26T14:22:53.177Z,25.40
2022-07-26T14:25:21.665Z,25.60
2022-07-26T14:27:52.026Z,25.60
2022-07-26T14:30:20.453Z,25.20
2022-07-26T14:32:49.046Z,24.60
2022-07-26T14:35:17.668Z,25.10
2022-07-26T14:37:46.202Z,25.50
2022-07-26T14:40:15.984Z,25.90
2022-07-26T14:42:44.133Z,26.20
2022-07-26T14:45:14.372Z,26.40
2022-07-26T14:47:42.529Z,26.70
2022-07-26T14:50:12.470Z,26.70
2022-07-26T14:52:41.535Z,26.90
2022-07-26T14:55:10.462Z,27.10
2022-07-26T14:57:40.241Z,26.70
2022-07-26T15:00:10.547Z,26.00
2022-07-26T15:02:41.354Z,25.70
2022-07-26T15:05:10.533Z,25.70
2022-07-26T15:07:39.089Z,26.10
2022-07-26T15:10:08.391Z,26.00
2022-07-26T15:12:36.752Z,26.10
2022-07-26T15:15:05.579Z,26.60
2022-07-26T15:17:33.981Z,26.70
2022-07-26T15:20:05.051Z,27.00
2022-07-26T15:22:33.222Z,27.00
2022-07-26T15:25:01.366Z,26.30
2022-07-26T15:27:29.600Z,25.50
2022-07-26T15:30:04.212Z,25.30
2022-07-26T15:32:35.663Z,25.20
2022-07-26T15:35:05.586Z,25.10
2022-07-26T15:37:33.847Z,25.80
2022-07-26T15:40:02.546Z,26.40
2022-07-26T15:42:32.704Z,27.00
2022-07-26T15:45:03.832Z,27.60
2022-07-26T15:47:53.581Z,26.90
2022-07-26T15:50:26.516Z,26.30
2022-07-26T15:52:54.939Z,26.30
2022-07-26T15:55:23.136Z,26.30
2022-07-26T15:57:51.425Z,26.40
2022-07-26T16:00:20.458Z,26.70
2022-07-26T16:02:48.720Z,26.60
2022-07-26T16:05:16.937Z,26.30
2022-07-26T16:07:47.921Z,26.20
2022-07-26T16:10:16.407Z,26.40
2022-07-26T16:12:44.587Z,26.70
2022-07-26T16:15:13.214Z,26.80
2022-07-26T16:17:41.682Z,27.10
2022-07-26T16:20:10.365Z,27.20
2022-07-26T16:22:42.093Z,27.30
2022-07-26T16:25:13.714Z,27.20
2022-07-26T16:27:43.351Z,27.30
2022-07-26T16:30:13.031Z,26.40
2022-07-26T16:32:41.579Z,26.40
2022-07-26T16:35:10.627Z,26.20
2022-07-26T16:37:38.857Z,26.10
2022-07-26T16:40:08.441Z,25.90
2022-07-26T16:42:38.164Z,25.60
2022-07-26T16:45:09.091Z,25.50
2022-07-26T16:47:37.275Z,25.50
2022-07-26T16:50:05.981Z,25.20
2022-07-26T16:52:34.276Z,25.00
2022-07-26T16:55:04.098Z,24.90
2022-07-26T16:57:32.492Z,24.90
2022-07-26T17:00:01.947Z,24.70
2022-07-26T17:02:30.171Z,24.80
2022-07-26T17:04:58.785Z,24.70
2022-07-26T17:07:27.010Z,24.70
2022-07-26T17:09:55.769Z,24.60
2022-07-26T17:12:24.653Z,24.40
2022-07-26T17:14:53.048Z,24.40
2022-07-26T17:17:22.577Z,24.10
2022-07-26T17:19:51.064Z,23.90
2022-07-26T17:22:19.512Z,23.70
2022-07-26T17:24:47.733Z,23.60
2022-07-26T17:27:15.916Z,23.60
2022-07-26T17:29:44.084Z,23.40
2022-07-26T17:32:12.230Z,23.40
2022-07-26T17:34:41.717Z,23.40
2022-07-26T17:37:10.555Z,23.00
2022-07-26T17:39:52.718Z,23.00
2022-07-26T17:42:22.749Z,22.80
2022-07-26T17:44:51.236Z,22.80
2022-07-26T17:47:29.597Z,22.80
2022-07-26T17:52:49.942Z,22.60
2022-07-26T17:55:19.648Z,22.60
2022-07-26T17:57:48.284Z,22.40
2022-07-26T18:00:19.022Z,22.30
2022-07-26T18:02:48.780Z,22.30
2022-07-26T18:05:20.136Z,22.30
2022-07-26T18:07:48.398Z,22.30
2022-07-26T18:10:16.602Z,22.20
2022-07-26T18:12:44.831Z,22.30
2022-07-26T18:15:13.535Z,22.30
2022-07-26T18:17:41.803Z,22.20
2022-07-26T18:20:11.254Z,22.10
2022-07-26T18:22:40.976Z,22.00
2022-07-26T18:25:10.015Z,21.90
2022-07-26T18:27:38.167Z,21.80
2022-07-26T18:30:07.704Z,21.80
2022-07-26T18:32:36.023Z,21.60
2022-07-26T18:35:06.049Z,21.50
2022-07-26T18:37:34.274Z,21.50
2022-07-26T18:40:03.954Z,21.40
2022-07-26T18:42:32.039Z,21.40
2022-07-26T18:45:00.253Z,21.40
2022-07-26T18:47:28.362Z,21.20
2022-07-26T18:49:56.532Z,21.10
2022-07-26T18:52:31.572Z,21.30
2022-07-26T18:55:06.785Z,21.20
2022-07-26T18:57:35.869Z,21.20
2022-07-26T19:00:06.079Z,21.20
2022-07-26T19:02:34.221Z,21.20
2022-07-26T19:05:02.426Z,21.20
2022-07-26T19:07:31.709Z,21.20
2022-07-26T19:10:00.109Z,21.20
2022-07-26T19:12:29.921Z,21.10
2022-07-26T19:14:59.943Z,21.10
2022-07-26T19:17:30.360Z,21.00
2022-07-26T19:20:01.341Z,20.80
2022-07-26T19:22:30.450Z,20.90
2022-07-26T19:24:58.634Z,20.80
2022-07-26T19:27:28.774Z,20.70
2022-07-26T19:29:58.300Z,20.60
2022-07-26T19:32:30.443Z,20.60
2022-07-26T19:35:01.616Z,20.40
2022-07-26T19:37:29.766Z,20.40
2022-07-26T19:40:00.427Z,20.40
2022-07-26T19:42:30.738Z,20.30
2022-07-26T19:45:00.580Z,20.20
2022-07-26T19:47:29.885Z,20.30
2022-07-26T19:49:58.896Z,20.20
2022-07-26T19:52:27.058Z,20.30
2022-07-26T19:54:55.272Z,20.10
2022-07-26T19:57:23.647Z,20.00
2022-07-26T19:59:55.006Z,19.90
2022-07-26T20:02:25.575Z,19.90
2022-07-26T20:04:54.775Z,19.90
2022-07-26T20:07:23.203Z,19.90
2022-07-26T20:09:52.906Z,19.80
2022-07-26T20:12:22.465Z,19.80
2022-07-26T20:14:51.004Z,19.80
2022-07-26T20:17:21.144Z,19.80
2022-07-26T20:19:50.996Z,19.70
2022-07-26T20:22:20.297Z,19.70
2022-07-26T20:24:55.355Z,19.60
2022-07-26T20:27:24.167Z,19.60
2022-07-26T20:29:56.230Z,19.60
2022-07-26T20:32:29.838Z,19.50
2022-07-26T20:34:59.952Z,19.40
2022-07-26T20:37:28.471Z,19.50
2022-07-26T20:39:56.674Z,19.40
2022-07-26T20:42:24.800Z,19.40
2022-07-26T20:44:53.673Z,19.30
2022-07-26T20:47:22.921Z,19.30
2022-07-26T20:49:51.202Z,19.30
2022-07-26T20:52:20.978Z,19.20
2022-07-26T20:54:49.149Z,19.20
2022-07-26T20:57:17.453Z,19.10
2022-07-26T20:59:45.589Z,19.20
2022-07-26T21:02:13.726Z,19.20
2022-07-26T21:04:41.898Z,19.10
2022-07-26T21:07:09.999Z,19.10
2022-07-26T21:09:39.557Z,19.10
2022-07-26T21:12:08.715Z,19.00
2022-07-26T21:14:36.929Z,19.00
2022-07-26T21:17:11.014Z,19.00
2022-07-26T21:19:40.047Z,19.00
2022-07-26T21:22:08.707Z,19.00
2022-07-26T21:24:38.005Z,18.90
2022-07-26T21:27:07.933Z,18.90
2022-07-26T21:29:38.084Z,18.90
2022-07-26T21:32:07.962Z,18.80
2022-07-26T21:34:36.168Z,18.80
2022-07-26T21:37:05.448Z,18.70
2022-07-26T21:39:34.032Z,18.70
2022-07-26T21:42:02.112Z,18.60
2022-07-26T21:44:31.678Z,18.60
2022-07-26T21:46:59.827Z,18.60
2022-07-26T21:49:28.113Z,18.70
2022-07-26T21:51:56.333Z,18.80
2022-07-26T21:54:24.665Z,18.80
2022-07-26T21:56:53.000Z,18.80
2022-07-26T21:59:21.180Z,18.90
2022-07-26T22:01:50.708Z,18.80
2022-07-26T22:04:18.942Z,18.80
2022-07-26T22:06:47.127Z,18.80
2022-07-26T22:09:15.387Z,18.90
2022-07-26T22:11:43.642Z,18.90
2022-07-26T22:14:11.814Z,18.80
2022-07-26T22:16:40.046Z,18.90
2022-07-26T22:19:09.847Z,18.80
2022-07-26T22:21:38.174Z,18.80
2022-07-26T22:24:06.911Z,18.80
2022-07-26T22:26:35.068Z,18.80
2022-07-26T22:29:04.304Z,18.80
2022-07-26T22:31:32.758Z,18.70
2022-07-26T22:34:00.971Z,18.60
2022-07-26T22:36:30.585Z,18.60
2022-07-26T22:38:58.708Z,18.60
2022-07-26T22:41:26.823Z,18.60
2022-07-26T22:44:00.144Z,18.60
2022-07-26T22:46:29.607Z,18.50
2022-07-26T22:48:57.882Z,18.60
2022-07-26T22:51:26.083Z,18.50
2022-07-26T22:53:55.602Z,18.50
2022-07-26T22:56:23.728Z,18.50
2022-07-26T22:58:51.842Z,18.50
2022-07-26T23:01:19.998Z,18.50
2022-07-26T23:03:49.768Z,18.50
2022-07-26T23:06:32.035Z,18.50
2022-07-26T23:09:01.973Z,18.40
2022-07-26T23:11:30.806Z,18.20
2022-07-26T23:14:00.052Z,18.20
2022-07-26T23:16:28.302Z,18.30
2022-07-26T23:18:56.931Z,18.20
2022-07-26T23:21:25.336Z,18.10
2022-07-26T23:23:53.525Z,18.00
2022-07-26T23:26:23.247Z,18.10
2022-07-26T23:28:51.623Z,18.10
2022-07-26T23:31:19.914Z,18.20
2022-07-26T23:33:51.893Z,18.10
2022-07-26T23:36:26.751Z,18.00
2022-07-26T23:38:55.745Z,18.10
2022-07-26T23:41:25.589Z,18.20
2022-07-26T23:43:54.194Z,18.10
2022-07-26T23:46:23.484Z,18.20
2022-07-26T23:48:52.605Z,17.90
2022-07-26T23:51:21.414Z,17.90
2022-07-26T23:53:49.570Z,17.80
2022-07-26T23:56:17.964Z,17.80
2022-07-26T23:58:47.773Z,17.70
